Terminal Aerodrome Forecast
Issued by NWS Charleston, WV

Home | Current Version | Previous Version | Text Only | Print | Product List | Glossary On
Versions: 1 2 3 4 5 6 7 8 9 10 11 12 13 14 15 16 17 18 19 20 21
000
FTUS41 KRLX 121301 AAA
TAFCRW
TAF AMD
KCRW 121301Z 1213/1312 28011G20KT 6SM -DZ OVC030
     FM121400 27013G25KT 4SM -SHSN OVC015
     FM121700 29010G23KT P6SM -SHSN BKN035
     FM122000 29010G21KT 3SM -SHSN OVC012
     FM130300 28009G19KT P6SM BKN035=

USA.gov is the U.S. government's official web portal to all federal, state and local government web resources and services.